CMA CGM Aristote — MRPN4 — position and weather

sailwx.info

Track history (hours):
 
Tides and Currents Weather Stations Pressure Air Temp Water Temp Dewpoint Dewpoint Depression Visibility Wind Speed Wind Dir Waves Ship Positions

CMA CGM Aristote

Last reported at 2015-Jul-01 18:33 UTC. Time now 2015-Jul-01 19:17 UTC.
Position N 49°34' W 003°36'.

Length 170 m; draft 6.8 m.

Type: Ship (hazmat cat A). MMSI: 235054581.

Date/timePositionNaut miles runAvg speedWind from/ knotsBaromVisibWave heightAir tempDewpointWater temp
2015-Jul-01 18:33N 49°34' W 003°36'2117.2
2015-Jul-01 17:19N 49°23' W 004°04'1317.3
2015-Jul-01 16:33N 49°16' W 004°22'3417.3
2015-Jul-01 14:33N 48°59' W 005°08'1717.3
2015-Jul-01 13:33N 48°50' W 005°30'1515.1
2015-Jul-01 12:33N 48°38' W 005°44'2020.4
2015-Jul-01 11:34N 48°20' W 005°58'2020.0
2015-Jul-01 10:34N 48°02' W 006°12'2019.4
2015-Jul-01 09:33N 47°45' W 006°25'1919.1
2015-Jul-01 08:33N 47°28' W 006°38'45919.1
2015-Jun-30 08:33N 40°10' W 009°51'1919.3
2015-Jun-30 07:33N 39°51' W 009°51'1919.3
2015-Jun-30 06:33N 39°32' W 009°52'1919.3
2015-Jun-30 05:34N 39°12' W 009°53'1919.1
2015-Jun-30 04:33N 38°53' W 009°52'1918.9
2015-Jun-30 03:33N 38°35' W 009°49'1918.9
2015-Jun-30 02:34N 38°16' W 009°43'1918.7
2015-Jun-30 01:34N 37°58' W 009°38'1919.1
2015-Jun-30 00:33N 37°39' W 009°32'1919.1
2015-Jun-29 23:33N 37°21' W 009°26'1918.8
2015-Jun-29 22:34N 37°02' W 009°22'1818.4
2015-Jun-29 21:33N 36°46' W 009°11'1919.2
2015-Jun-29 20:33N 36°39' W 008°49'1919.3
2015-Jun-29 19:33N 36°33' W 008°26'2119.4
2015-Jun-29 18:29N 36°26' W 008°02'8319.1
2015-Jun-29 14:08N 36°01' W 006°24'2918.2
2015-Jun-29 12:33N 35°58' W 005°48'1717.2
2015-Jun-29 11:33N 36°01' W 005°27'7 7.2
2015-Jun-29 10:33N 36°08' W 005°25'0 0.0
2015-Jun-29 09:33N 36°08' W 005°25'0 0.0
2015-Jun-29 08:33N 36°08' W 005°25'0 0.0
2015-Jun-29 07:33N 36°08' W 005°25'0 0.0
2015-Jun-29 06:33N 36°08' W 005°25'0 0.0
2015-Jun-29 05:33N 36°08' W 005°25'0 0.0
2015-Jun-29 04:24N 36°08' W 005°25'0 0.0
2015-Jun-29 03:33N 36°08' W 005°25'0 0.0
2015-Jun-29 02:24N 36°08' W 005°25'0 0.0
2015-Jun-29 01:33N 36°08' W 005°25'0 0.0
2015-Jun-29 00:33N 36°08' W 005°25'0 0.0
2015-Jun-28 23:33N 36°08' W 005°25'3 3.5
2015-Jun-28 22:33N 36°05' W 005°22'8 8.4
2015-Jun-28 21:33N 35°58' W 005°27'1713.3
2015-Jun-28 20:18N 35°55' W 005°48'2615.0
2015-Jun-28 18:33N 35°50' W 006°20'1615.6
2015-Jun-28 17:33N 35°39' W 006°34'1616.0
2015-Jun-28 16:33N 35°29' W 006°49'1615.8
2015-Jun-28 15:33N 35°19' W 007°03'1615.9
2015-Jun-28 14:33N 35°08' W 007°18'1716.1
2015-Jun-28 13:30N 34°56' W 007°33'3216.3
2015-Jun-28 11:32N 34°34' W 008°02'1616.6
2015-Jun-28 10:33N 34°23' W 008°16'2116.4
2015-Jun-28 09:18N 34°09' W 008°34'2924.4
2015-Jun-28 08:07N 33°50' W 009°00'1911.1
2015-Jun-28 06:24N 33°37' W 009°17'6616.4
2015-Jun-28 02:23N 32°52' W 010°15'21015.9
2015-Jun-27 13:08N 30°30' W 013°17'4115.9
2015-Jun-27 10:33N 30°03' W 013°52'1615.8
2015-Jun-27 09:33N 29°52' W 014°05'1615.8
2015-Jun-27 08:31N 29°41' W 014°19'1515.9
2015-Jun-27 07:33N 29°30' W 014°32'4916.1
2015-Jun-27 04:30N 28°57' W 015°13'1516.2
2015-Jun-27 03:33N 28°47' W 015°27'1615.9
2015-Jun-27 02:33N 28°36' W 015°40'1615.7
2015-Jun-27 01:34N 28°24' W 015°51'4615.2
2015-Jun-26 22:32N 27°49' W 016°24'  
Track history (hours):
 
Tides and Currents Weather Stations Pressure Air Temp Water Temp Dewpoint Dewpoint Depression Visibility Wind Speed Wind Dir Waves Ship Positions

CMA CGM Aristote

Last reported at 2015-Jul-01 18:33 UTC. Time now 2015-Jul-01 19:17 UTC.
Position N 49°34' W 003°36'.

Length 170 m; draft 6.8 m.

Type: Ship (hazmat cat A). MMSI: 235054581.

Date/timePositionNaut miles runAvg speedWind from/ knotsBaromVisibWave heightAir tempDewpointWater temp
2015-Jul-01 18:33N 49°34' W 003°36'2117.2
2015-Jul-01 17:19N 49°23' W 004°04'1317.3
2015-Jul-01 16:33N 49°16' W 004°22'3417.3
2015-Jul-01 14:33N 48°59' W 005°08'1717.3
2015-Jul-01 13:33N 48°50' W 005°30'1515.1
2015-Jul-01 12:33N 48°38' W 005°44'2020.4
2015-Jul-01 11:34N 48°20' W 005°58'2020.0
2015-Jul-01 10:34N 48°02' W 006°12'2019.4
2015-Jul-01 09:33N 47°45' W 006°25'1919.1
2015-Jul-01 08:33N 47°28' W 006°38'45919.1
2015-Jun-30 08:33N 40°10' W 009°51'1919.3
2015-Jun-30 07:33N 39°51' W 009°51'1919.3
2015-Jun-30 06:33N 39°32' W 009°52'1919.3
2015-Jun-30 05:34N 39°12' W 009°53'1919.1
2015-Jun-30 04:33N 38°53' W 009°52'1918.9
2015-Jun-30 03:33N 38°35' W 009°49'1918.9
2015-Jun-30 02:34N 38°16' W 009°43'1918.7
2015-Jun-30 01:34N 37°58' W 009°38'1919.1
2015-Jun-30 00:33N 37°39' W 009°32'1919.1
2015-Jun-29 23:33N 37°21' W 009°26'1918.8
2015-Jun-29 22:34N 37°02' W 009°22'1818.4
2015-Jun-29 21:33N 36°46' W 009°11'1919.2
2015-Jun-29 20:33N 36°39' W 008°49'1919.3
2015-Jun-29 19:33N 36°33' W 008°26'2119.4
2015-Jun-29 18:29N 36°26' W 008°02'8319.1
2015-Jun-29 14:08N 36°01' W 006°24'2918.2
2015-Jun-29 12:33N 35°58' W 005°48'1717.2
2015-Jun-29 11:33N 36°01' W 005°27'7 7.2
2015-Jun-29 10:33N 36°08' W 005°25'0 0.0
2015-Jun-29 09:33N 36°08' W 005°25'0 0.0
2015-Jun-29 08:33N 36°08' W 005°25'0 0.0
2015-Jun-29 07:33N 36°08' W 005°25'0 0.0
2015-Jun-29 06:33N 36°08' W 005°25'0 0.0
2015-Jun-29 05:33N 36°08' W 005°25'0 0.0
2015-Jun-29 04:24N 36°08' W 005°25'0 0.0
2015-Jun-29 03:33N 36°08' W 005°25'0 0.0
2015-Jun-29 02:24N 36°08' W 005°25'0 0.0
2015-Jun-29 01:33N 36°08' W 005°25'0 0.0
2015-Jun-29 00:33N 36°08' W 005°25'0 0.0
2015-Jun-28 23:33N 36°08' W 005°25'3 3.5
2015-Jun-28 22:33N 36°05' W 005°22'8 8.4
2015-Jun-28 21:33N 35°58' W 005°27'1713.3
2015-Jun-28 20:18N 35°55' W 005°48'2615.0
2015-Jun-28 18:33N 35°50' W 006°20'1615.6
2015-Jun-28 17:33N 35°39' W 006°34'1616.0
2015-Jun-28 16:33N 35°29' W 006°49'1615.8
2015-Jun-28 15:33N 35°19' W 007°03'1615.9
2015-Jun-28 14:33N 35°08' W 007°18'1716.1
2015-Jun-28 13:30N 34°56' W 007°33'3216.3
2015-Jun-28 11:32N 34°34' W 008°02'1616.6
2015-Jun-28 10:33N 34°23' W 008°16'2116.4
2015-Jun-28 09:18N 34°09' W 008°34'2924.4
2015-Jun-28 08:07N 33°50' W 009°00'1911.1
2015-Jun-28 06:24N 33°37' W 009°17'6616.4
2015-Jun-28 02:23N 32°52' W 010°15'21015.9
2015-Jun-27 13:08N 30°30' W 013°17'4115.9
2015-Jun-27 10:33N 30°03' W 013°52'1615.8
2015-Jun-27 09:33N 29°52' W 014°05'1615.8
2015-Jun-27 08:31N 29°41' W 014°19'1515.9
2015-Jun-27 07:33N 29°30' W 014°32'4916.1
2015-Jun-27 04:30N 28°57' W 015°13'1516.2
2015-Jun-27 03:33N 28°47' W 015°27'1615.9
2015-Jun-27 02:33N 28°36' W 015°40'1615.7
2015-Jun-27 01:34N 28°24' W 015°51'4615.2
2015-Jun-26 22:32N 27°49' W 016°24'  

Dump ship's entire track history